createdAt,value
2022-12-08T00:01:09.610Z,3.30
2022-12-08T00:03:37.418Z,3.30
2022-12-08T00:06:24.209Z,3.30
2022-12-08T00:09:09.920Z,3.30
2022-12-08T00:11:36.945Z,3.40
2022-12-08T00:14:03.764Z,3.40
2022-12-08T00:16:30.566Z,3.50
2022-12-08T00:18:57.356Z,3.50
2022-12-08T00:21:24.151Z,3.50
2022-12-08T00:23:50.975Z,3.50
2022-12-08T00:26:17.774Z,3.60
2022-12-08T00:28:44.606Z,3.60
2022-12-08T00:31:11.975Z,3.60
2022-12-08T00:33:38.723Z,3.60
2022-12-08T00:36:10.904Z,3.60
2022-12-08T00:38:38.339Z,3.50
2022-12-08T00:41:12.624Z,3.40
2022-12-08T00:43:39.848Z,3.40
2022-12-08T00:46:06.917Z,3.40
2022-12-08T00:48:34.174Z,3.40
2022-12-08T00:51:01.025Z,3.40
2022-12-08T00:53:27.796Z,3.40
2022-12-08T00:55:54.581Z,3.50
2022-12-08T00:58:21.319Z,3.50
2022-12-08T01:00:48.105Z,3.40
2022-12-08T01:03:15.344Z,3.30
2022-12-08T01:05:42.097Z,3.20
2022-12-08T01:08:09.210Z,3.20
2022-12-08T01:10:37.113Z,3.20
2022-12-08T01:13:04.685Z,3.20
2022-12-08T01:15:31.440Z,3.30
2022-12-08T01:17:58.211Z,3.30
2022-12-08T01:20:25.021Z,3.40
2022-12-08T01:22:51.777Z,3.30
2022-12-08T01:25:18.593Z,3.40
2022-12-08T01:27:45.378Z,3.40
2022-12-08T01:30:13.332Z,3.50
2022-12-08T01:32:40.146Z,3.50
2022-12-08T01:35:07.137Z,3.40
2022-12-08T01:37:33.916Z,3.40
2022-12-08T01:40:01.019Z,3.50
2022-12-08T01:42:28.100Z,3.50
2022-12-08T01:45:02.987Z,3.40
2022-12-08T01:47:40.770Z,3.30
2022-12-08T01:50:11.432Z,3.30
2022-12-08T01:52:42.771Z,3.40
2022-12-08T01:55:22.909Z,3.50
2022-12-08T01:57:53.374Z,3.60
2022-12-08T02:00:22.740Z,3.60
2022-12-08T02:02:58.524Z,3.60
2022-12-08T02:05:28.811Z,3.50
2022-12-08T02:07:57.222Z,3.40
2022-12-08T02:10:25.326Z,3.40
2022-12-08T02:12:54.729Z,3.40
2022-12-08T02:15:36.721Z,3.40
2022-12-08T02:18:10.289Z,3.30
2022-12-08T02:20:43.205Z,3.30
2022-12-08T02:23:18.553Z,3.20
2022-12-08T02:26:04.465Z,3.20
2022-12-08T02:28:37.172Z,3.30
2022-12-08T02:31:28.865Z,3.40
2022-12-08T02:34:23.393Z,3.40
2022-12-08T02:37:08.737Z,3.40
2022-12-08T02:39:54.337Z,3.40
2022-12-08T02:42:42.316Z,3.40
2022-12-08T02:45:47.723Z,3.40
2022-12-08T02:48:15.227Z,3.40
2022-12-08T02:50:42.356Z,3.40
2022-12-08T02:56:04.336Z,3.40
2022-12-08T02:59:08.320Z,3.40
2022-12-08T03:01:40.914Z,3.50
2022-12-08T03:04:39.023Z,3.50
2022-12-08T03:07:22.945Z,3.60
2022-12-08T03:10:05.273Z,3.60
2022-12-08T03:12:40.252Z,3.60
2022-12-08T03:15:11.499Z,3.60
2022-12-08T03:17:41.137Z,3.60
2022-12-08T03:20:13.047Z,3.60
2022-12-08T03:22:41.996Z,3.60
2022-12-08T03:25:12.714Z,3.60
2022-12-08T03:27:39.784Z,3.50
2022-12-08T03:30:07.611Z,3.50
2022-12-08T03:32:40.502Z,3.60
2022-12-08T03:35:12.329Z,3.60
2022-12-08T03:37:40.132Z,3.50
2022-12-08T03:40:10.189Z,3.40
2022-12-08T03:42:36.982Z,3.40
2022-12-08T03:45:04.768Z,3.30
2022-12-08T03:47:31.746Z,3.30
2022-12-08T03:49:58.536Z,3.30
2022-12-08T03:52:25.403Z,3.30
2022-12-08T03:54:52.142Z,3.30
2022-12-08T03:57:18.929Z,3.20
2022-12-08T03:59:45.620Z,3.10
2022-12-08T04:02:12.460Z,3.10
2022-12-08T04:04:39.268Z,3.10
2022-12-08T04:07:05.999Z,3.10
2022-12-08T04:09:32.712Z,3.10
2022-12-08T04:11:59.511Z,3.10
2022-12-08T04:14:26.182Z,3.10
2022-12-08T04:16:52.965Z,3.20
2022-12-08T04:19:19.851Z,3.20
2022-12-08T04:21:46.653Z,3.00
2022-12-08T04:24:13.372Z,2.90
2022-12-08T04:26:40.142Z,2.80
2022-12-08T04:29:06.945Z,2.90
2022-12-08T04:31:33.768Z,2.80
2022-12-08T04:34:00.646Z,2.90
2022-12-08T04:36:27.514Z,2.80
2022-12-08T04:38:54.369Z,2.80
2022-12-08T04:41:21.363Z,2.80
2022-12-08T04:43:48.086Z,2.80
2022-12-08T04:46:15.045Z,2.80
2022-12-08T04:48:42.023Z,2.70
2022-12-08T04:51:16.863Z,2.60
2022-12-08T04:53:46.632Z,2.60
2022-12-08T04:56:18.601Z,2.70
2022-12-08T04:58:46.162Z,2.70
2022-12-08T05:01:13.450Z,2.70
2022-12-08T05:03:40.295Z,2.80
2022-12-08T05:06:07.362Z,2.80
2022-12-08T05:08:34.215Z,2.70
2022-12-08T05:11:09.739Z,2.70
2022-12-08T05:13:36.564Z,2.60
2022-12-08T05:16:04.444Z,2.60
2022-12-08T05:18:31.423Z,2.60
2022-12-08T05:20:58.330Z,2.60
2022-12-08T05:23:25.206Z,2.60
2022-12-08T05:25:51.933Z,2.70
2022-12-08T05:28:40.889Z,2.70
2022-12-08T05:31:05.666Z,2.60
2022-12-08T05:33:32.453Z,2.60
2022-12-08T05:35:59.389Z,2.60
2022-12-08T05:38:26.111Z,2.60
2022-12-08T05:40:52.894Z,2.50
2022-12-08T05:43:19.651Z,2.50
2022-12-08T05:45:46.468Z,2.30
2022-12-08T05:48:13.373Z,2.40
2022-12-08T05:50:40.423Z,2.40
2022-12-08T05:53:07.287Z,2.40
2022-12-08T05:55:34.060Z,2.30
2022-12-08T05:58:06.212Z,2.20
2022-12-08T06:00:35.010Z,2.10
2022-12-08T06:03:01.941Z,2.10
2022-12-08T06:05:28.708Z,2.10
2022-12-08T06:07:55.497Z,2.10
2022-12-08T06:10:22.285Z,2.00
2022-12-08T06:12:49.086Z,1.90
2022-12-08T06:15:15.865Z,1.90
2022-12-08T06:17:42.627Z,2.00
2022-12-08T06:20:09.859Z,2.00
2022-12-08T06:22:37.629Z,2.10
2022-12-08T06:25:09.541Z,2.00
2022-12-08T06:27:36.912Z,1.90
2022-12-08T06:30:04.777Z,1.90
2022-12-08T06:32:31.731Z,1.80
2022-12-08T06:34:58.528Z,1.80
2022-12-08T06:37:25.342Z,1.80
2022-12-08T06:39:52.118Z,1.80
2022-12-08T06:42:37.457Z,1.80
2022-12-08T06:45:04.533Z,1.90
2022-12-08T06:47:31.304Z,1.80
2022-12-08T06:49:58.105Z,1.90
2022-12-08T06:52:25.153Z,1.80
2022-12-08T06:54:51.970Z,1.90
2022-12-08T06:57:18.779Z,1.90
2022-12-08T06:59:45.646Z,1.90
2022-12-08T07:02:12.599Z,1.90
2022-12-08T07:04:39.348Z,1.90
2022-12-08T07:07:06.151Z,2.00
2022-12-08T07:09:33.003Z,2.10
2022-12-08T07:11:59.947Z,2.10
2022-12-08T07:14:26.931Z,2.30
2022-12-08T07:16:53.920Z,2.40
2022-12-08T07:19:20.964Z,2.40
2022-12-08T07:21:48.003Z,2.30
2022-12-08T07:24:14.827Z,2.20
2022-12-08T07:26:41.908Z,2.20
2022-12-08T07:29:10.510Z,2.20
2022-12-08T07:31:37.404Z,2.40
2022-12-08T07:34:04.430Z,2.40
2022-12-08T07:36:32.547Z,2.40
2022-12-08T07:38:59.680Z,2.50
2022-12-08T07:41:26.992Z,2.60
2022-12-08T07:43:54.185Z,2.70
2022-12-08T07:46:22.791Z,2.80
2022-12-08T07:48:49.753Z,2.60
2022-12-08T07:51:17.551Z,2.40
2022-12-08T07:53:51.687Z,2.30
2022-12-08T07:56:21.321Z,2.50
2022-12-08T07:58:48.195Z,2.60
2022-12-08T08:01:29.535Z,2.70
2022-12-08T08:03:58.112Z,2.80
2022-12-08T08:06:24.870Z,2.90
2022-12-08T08:08:51.549Z,3.00
2022-12-08T08:11:21.296Z,3.00
2022-12-08T08:13:49.319Z,3.00
2022-12-08T08:16:16.348Z,3.00
2022-12-08T08:18:43.617Z,3.20
2022-12-08T08:23:57.315Z,3.20
2022-12-08T08:26:24.109Z,3.30
2022-12-08T08:28:50.908Z,3.30
2022-12-08T08:31:17.727Z,3.40
2022-12-08T08:33:44.506Z,3.30
2022-12-08T08:36:11.584Z,3.40
2022-12-08T08:38:42.882Z,3.40
2022-12-08T08:41:10.786Z,3.40
2022-12-08T08:43:38.926Z,3.40
2022-12-08T08:46:07.034Z,3.50
2022-12-08T08:48:34.474Z,3.40
2022-12-08T08:51:09.142Z,3.40
2022-12-08T08:53:36.318Z,3.50
2022-12-08T08:56:05.214Z,3.60
2022-12-08T08:58:32.010Z,3.70
2022-12-08T09:00:58.999Z,3.40
2022-12-08T09:03:25.812Z,3.10
2022-12-08T09:05:52.729Z,2.90
2022-12-08T09:08:19.720Z,3.00
2022-12-08T09:10:46.557Z,3.10
2022-12-08T09:13:13.530Z,3.20
2022-12-08T09:15:40.504Z,3.20
2022-12-08T09:18:07.576Z,3.30
2022-12-08T09:20:35.685Z,3.20
2022-12-08T09:23:02.445Z,3.30
2022-12-08T09:25:29.523Z,3.40
2022-12-08T09:27:56.360Z,3.40
2022-12-08T09:30:23.338Z,3.40
2022-12-08T09:32:53.268Z,3.20
2022-12-08T09:35:20.417Z,3.20
2022-12-08T09:37:47.299Z,3.30
2022-12-08T09:40:18.769Z,3.40
2022-12-08T09:43:24.365Z,3.50
2022-12-08T09:45:52.278Z,3.60
2022-12-08T09:48:25.472Z,3.50
2022-12-08T09:50:55.917Z,3.30
2022-12-08T09:53:33.701Z,3.30
2022-12-08T09:56:16.251Z,3.50
2022-12-08T09:59:20.329Z,3.60
2022-12-08T10:01:47.176Z,3.50
2022-12-08T10:04:32.457Z,3.50
2022-12-08T10:07:19.775Z,3.50
2022-12-08T10:09:47.600Z,3.70
2022-12-08T10:12:41.659Z,3.60
2022-12-08T10:15:45.644Z,3.50
2022-12-08T10:18:27.193Z,3.50
2022-12-08T10:20:58.001Z,3.60
2022-12-08T10:23:35.034Z,3.60
2022-12-08T10:26:06.398Z,3.70
2022-12-08T10:28:35.966Z,3.80
2022-12-08T10:31:04.901Z,3.60
2022-12-08T10:33:33.397Z,3.50
2022-12-08T10:36:04.701Z,3.40
2022-12-08T10:38:39.393Z,3.40
2022-12-08T10:41:12.149Z,3.60
2022-12-08T10:43:44.424Z,3.70
2022-12-08T10:46:15.866Z,3.50
2022-12-08T10:48:48.553Z,3.60
2022-12-08T10:51:28.638Z,3.80
2022-12-08T10:53:55.647Z,3.90
2022-12-08T10:56:29.586Z,3.80
2022-12-08T10:59:11.403Z,3.70
2022-12-08T11:01:40.258Z,3.90
2022-12-08T11:04:21.527Z,3.90
2022-12-08T11:06:50.514Z,4.10
2022-12-08T11:09:20.475Z,4.30
2022-12-08T11:11:58.743Z,4.20
2022-12-08T11:14:31.459Z,4.20
2022-12-08T11:17:08.802Z,4.30
2022-12-08T11:19:40.876Z,4.20
2022-12-08T11:22:29.285Z,4.20
2022-12-08T11:25:11.364Z,3.80
2022-12-08T11:27:43.556Z,3.60
2022-12-08T11:30:27.806Z,3.70
2022-12-08T11:33:03.561Z,3.90
2022-12-08T11:35:32.968Z,4.00
2022-12-08T11:38:21.675Z,4.10
2022-12-08T11:40:55.890Z,4.10
2022-12-08T11:43:44.202Z,4.20
2022-12-08T11:46:34.202Z,4.20
2022-12-08T11:49:09.626Z,4.10
2022-12-08T11:52:01.845Z,4.10
2022-12-08T11:54:35.376Z,4.20
2022-12-08T11:57:05.895Z,4.40
2022-12-08T11:59:44.454Z,4.50
2022-12-08T12:02:24.142Z,4.60
2022-12-08T12:04:57.656Z,4.50
2022-12-08T12:08:02.685Z,4.60
2022-12-08T12:10:35.449Z,4.70
2022-12-08T12:13:17.257Z,4.80
2022-12-08T12:16:21.167Z,4.80
2022-12-08T12:18:53.533Z,4.50
2022-12-08T12:21:45.478Z,4.60
2022-12-08T12:24:27.512Z,4.50
2022-12-08T12:26:59.965Z,4.40
2022-12-08T12:29:31.315Z,4.60
2022-12-08T12:32:04.520Z,4.70
2022-12-08T12:34:52.246Z,4.70
2022-12-08T12:37:22.706Z,4.40
2022-12-08T12:39:52.248Z,4.30
2022-12-08T12:42:53.021Z,4.50
2022-12-08T12:45:22.515Z,4.50
2022-12-08T12:47:54.324Z,4.50
2022-12-08T12:50:34.836Z,4.50
2022-12-08T12:53:09.198Z,4.30
2022-12-08T12:56:04.132Z,4.50
2022-12-08T12:58:30.833Z,4.60
2022-12-08T13:01:13.183Z,4.30
2022-12-08T13:03:50.024Z,4.10
2022-12-08T13:06:38.093Z,4.00
2022-12-08T13:09:07.226Z,4.20
2022-12-08T13:11:49.968Z,4.20
2022-12-08T13:14:47.593Z,4.30
2022-12-08T13:17:26.145Z,4.30
2022-12-08T13:20:01.190Z,4.40
2022-12-08T13:23:09.925Z,4.40
2022-12-08T13:25:39.648Z,4.30
2022-12-08T13:28:24.172Z,4.20
2022-12-08T13:30:55.057Z,4.00
2022-12-08T13:33:38.382Z,4.00
2022-12-08T13:36:38.199Z,3.90
2022-12-08T13:39:06.065Z,3.70
2022-12-08T13:41:38.311Z,3.70
2022-12-08T13:59:06.238Z,3.90
2022-12-08T14:01:43.761Z,4.00
2022-12-08T14:07:04.441Z,3.90
2022-12-08T14:09:36.817Z,3.90
2022-12-08T14:12:08.264Z,3.80
2022-12-08T14:15:01.655Z,3.90
2022-12-08T14:17:27.650Z,3.80
2022-12-08T14:20:19.630Z,4.00
2022-12-08T14:22:46.868Z,3.90
2022-12-08T14:25:15.901Z,4.10
2022-12-08T14:27:43.876Z,4.20
2022-12-08T14:30:14.156Z,4.20
2022-12-08T14:32:47.874Z,4.30
2022-12-08T14:35:31.064Z,4.40
2022-12-08T14:38:02.813Z,4.40
2022-12-08T14:40:41.408Z,4.50
2022-12-08T14:43:08.137Z,4.60
2022-12-08T14:46:01.573Z,4.40
2022-12-08T14:48:31.433Z,4.40
2022-12-08T14:51:04.179Z,4.40
2022-12-08T14:53:39.545Z,4.20
2022-12-08T14:56:21.751Z,4.20
2022-12-08T14:59:01.463Z,4.00
2022-12-08T15:01:28.362Z,3.80
2022-12-08T15:04:12.617Z,3.80
2022-12-08T15:07:11.449Z,3.70
2022-12-08T15:09:43.563Z,3.80
2022-12-08T15:12:13.100Z,3.70
2022-12-08T15:14:57.385Z,3.70
2022-12-08T15:17:48.995Z,3.70
2022-12-08T15:20:40.831Z,3.60
2022-12-08T15:23:21.333Z,3.50
2022-12-08T15:25:48.753Z,3.40
2022-12-08T15:28:19.360Z,3.40
2022-12-08T15:30:46.891Z,3.50
2022-12-08T15:33:13.865Z,3.50
2022-12-08T15:35:41.198Z,3.50
2022-12-08T15:38:17.782Z,3.40
2022-12-08T15:40:44.668Z,3.40
2022-12-08T15:43:11.687Z,3.50
2022-12-08T15:45:41.324Z,3.50
2022-12-08T15:48:19.265Z,3.50
2022-12-08T15:50:47.553Z,3.60
2022-12-08T15:53:14.973Z,3.70
2022-12-08T15:55:53.204Z,3.70
2022-12-08T15:58:52.997Z,3.80
2022-12-08T16:01:17.139Z,3.90
2022-12-08T16:04:27.435Z,3.90
2022-12-08T16:07:12.933Z,3.90
2022-12-08T16:09:27.353Z,3.90
2022-12-08T16:12:12.834Z,3.80
2022-12-08T16:17:28.757Z,3.80
2022-12-08T16:19:55.937Z,3.80
2022-12-08T16:22:52.870Z,3.90
2022-12-08T16:25:19.766Z,3.90
2022-12-08T16:28:05.210Z,3.90
2022-12-08T16:30:35.921Z,3.70
2022-12-08T16:33:02.790Z,3.70
2022-12-08T16:35:29.905Z,3.80
2022-12-08T16:37:57.204Z,3.90
2022-12-08T16:40:24.152Z,3.90
2022-12-08T16:42:50.910Z,3.80
2022-12-08T16:45:20.320Z,3.80
2022-12-08T16:47:48.261Z,3.70
2022-12-08T16:50:27.583Z,3.60
2022-12-08T16:53:07.658Z,3.60
2022-12-08T16:55:35.235Z,3.80
2022-12-08T16:58:03.620Z,3.70
2022-12-08T17:00:31.479Z,3.70
2022-12-08T17:02:59.016Z,3.70
2022-12-08T17:05:26.667Z,3.70
2022-12-08T17:07:54.463Z,3.70
2022-12-08T17:10:26.793Z,3.80
2022-12-08T17:12:53.748Z,3.80
2022-12-08T17:15:24.320Z,3.80
2022-12-08T17:17:51.711Z,3.90
2022-12-08T17:20:21.693Z,3.90
2022-12-08T17:22:48.644Z,3.90
2022-12-08T17:25:16.008Z,3.90
2022-12-08T17:27:43.185Z,3.90
2022-12-08T17:30:11.854Z,3.90
2022-12-08T17:32:39.156Z,3.80
2022-12-08T17:35:07.312Z,3.80
2022-12-08T17:37:34.777Z,3.90
2022-12-08T17:40:01.796Z,3.90
2022-12-08T17:42:28.675Z,3.80
2022-12-08T17:44:55.656Z,3.80
2022-12-08T17:47:22.493Z,3.80
2022-12-08T17:49:49.309Z,3.80
2022-12-08T17:52:16.070Z,3.90
2022-12-08T17:54:42.771Z,3.90
2022-12-08T17:57:09.473Z,3.90
2022-12-08T17:59:36.267Z,3.90
2022-12-08T18:02:04.457Z,3.80
2022-12-08T18:04:31.438Z,3.90
2022-12-08T18:07:00.239Z,3.80
2022-12-08T18:09:27.197Z,3.80
2022-12-08T18:11:54.224Z,3.70
2022-12-08T18:14:21.171Z,3.60
2022-12-08T18:16:48.143Z,3.60
2022-12-08T18:19:15.548Z,3.70
2022-12-08T18:21:42.756Z,3.70
2022-12-08T18:24:18.237Z,3.70
2022-12-08T18:26:45.431Z,3.70
2022-12-08T18:29:12.206Z,3.70
2022-12-08T18:31:38.976Z,3.70
2022-12-08T18:34:05.731Z,3.60
2022-12-08T18:36:32.509Z,3.60
2022-12-08T18:38:59.423Z,3.70
2022-12-08T18:41:26.600Z,3.70
2022-12-08T18:43:54.720Z,3.70
2022-12-08T18:46:22.206Z,3.70
2022-12-08T18:48:50.886Z,3.70
2022-12-08T18:51:23.338Z,3.70
2022-12-08T18:53:50.901Z,3.70
2022-12-08T18:56:24.557Z,3.80
2022-12-08T18:58:51.326Z,3.80
2022-12-08T19:01:18.601Z,3.80
2022-12-08T19:04:04.700Z,3.80
2022-12-08T19:06:32.929Z,3.70
2022-12-08T19:08:59.732Z,3.70
2022-12-08T19:11:29.006Z,3.40
2022-12-08T19:13:56.049Z,3.30
2022-12-08T19:16:23.678Z,3.30
2022-12-08T19:18:50.628Z,3.30
2022-12-08T19:21:17.730Z,3.30
2022-12-08T19:23:44.487Z,3.20
2022-12-08T19:26:12.033Z,3.10
2022-12-08T19:28:41.136Z,3.10
2022-12-08T19:31:09.421Z,3.10
2022-12-08T19:33:37.704Z,3.10
2022-12-08T19:36:10.065Z,3.10
2022-12-08T19:38:56.844Z,3.10
2022-12-08T19:41:43.218Z,3.10
2022-12-08T19:44:34.130Z,3.20
2022-12-08T19:47:01.935Z,3.20
2022-12-08T19:49:29.087Z,3.10
2022-12-08T19:51:56.186Z,3.00
2022-12-08T19:54:23.314Z,3.00
2022-12-08T19:56:52.480Z,3.00
2022-12-08T19:59:19.502Z,3.00
2022-12-08T20:01:48.552Z,3.10
2022-12-08T20:04:16.326Z,3.00
2022-12-08T20:06:45.870Z,3.00
2022-12-08T20:09:14.483Z,3.00
2022-12-08T20:11:41.688Z,3.10
2022-12-08T20:14:08.783Z,3.10
2022-12-08T20:16:36.622Z,3.10
2022-12-08T20:19:03.661Z,3.10
2022-12-08T20:21:30.491Z,3.10
2022-12-08T20:23:57.988Z,3.00
2022-12-08T20:26:25.028Z,3.10
2022-12-08T20:28:51.855Z,3.10
2022-12-08T20:31:29.702Z,3.00
2022-12-08T20:33:56.973Z,3.00
2022-12-08T20:36:23.897Z,3.00
2022-12-08T20:38:52.350Z,3.00
2022-12-08T20:41:20.536Z,3.00
2022-12-08T20:43:48.089Z,3.00
2022-12-08T20:46:17.233Z,2.90
2022-12-08T20:48:44.692Z,2.70
2022-12-08T20:51:19.565Z,2.60
2022-12-08T20:53:47.559Z,2.40
2022-12-08T20:56:18.287Z,2.40
2022-12-08T20:58:45.766Z,2.40
2022-12-08T21:01:14.418Z,2.50
2022-12-08T21:03:43.110Z,2.40
2022-12-08T21:06:11.236Z,2.40
2022-12-08T21:08:38.890Z,2.40
2022-12-08T21:11:06.867Z,2.40
2022-12-08T21:13:34.016Z,2.50
2022-12-08T21:16:01.135Z,2.50
2022-12-08T21:18:28.551Z,2.60
2022-12-08T21:21:08.097Z,2.60
2022-12-08T21:23:35.957Z,2.50
2022-12-08T21:26:03.217Z,2.50
2022-12-08T21:28:30.149Z,2.40
2022-12-08T21:30:57.022Z,2.50
2022-12-08T21:33:24.221Z,2.50
2022-12-08T21:35:51.095Z,2.50
2022-12-08T21:38:18.132Z,2.50
2022-12-08T21:40:44.911Z,2.60
2022-12-08T21:43:13.440Z,2.40
2022-12-08T21:45:40.598Z,2.30
2022-12-08T21:48:11.735Z,2.30
2022-12-08T21:50:39.047Z,2.30
2022-12-08T21:53:06.194Z,2.40
2022-12-08T21:55:33.036Z,2.50
2022-12-08T21:58:00.943Z,2.40
2022-12-08T22:00:28.128Z,2.40
2022-12-08T22:02:55.421Z,2.40
2022-12-08T22:05:22.737Z,2.50
2022-12-08T22:07:49.948Z,2.60
2022-12-08T22:10:17.084Z,2.60
2022-12-08T22:12:44.082Z,2.70
2022-12-08T22:15:11.501Z,2.80
2022-12-08T22:17:44.001Z,2.80
2022-12-08T22:20:13.738Z,2.70
2022-12-08T22:22:44.344Z,2.60
2022-12-08T22:25:12.135Z,2.60
2022-12-08T22:27:41.463Z,2.50
2022-12-08T22:30:09.899Z,2.40
2022-12-08T22:32:37.713Z,2.30
2022-12-08T22:35:05.129Z,2.30
2022-12-08T22:37:32.302Z,2.30
2022-12-08T22:39:59.320Z,2.40
2022-12-08T22:42:26.689Z,2.30
2022-12-08T22:44:53.775Z,2.30
2022-12-08T22:47:20.887Z,2.20
2022-12-08T22:49:47.994Z,2.30
2022-12-08T22:52:14.913Z,2.20
2022-12-08T22:54:42.010Z,2.30
2022-12-08T22:57:09.136Z,2.20
2022-12-08T22:59:36.147Z,2.20
2022-12-08T23:02:03.143Z,2.30
2022-12-08T23:04:30.464Z,2.30
2022-12-08T23:06:57.336Z,2.30
2022-12-08T23:09:24.074Z,2.30
2022-12-08T23:11:51.527Z,2.20
2022-12-08T23:14:18.301Z,2.20
2022-12-08T23:16:45.417Z,2.20
2022-12-08T23:19:12.475Z,2.20
2022-12-08T23:21:39.803Z,2.30
2022-12-08T23:24:06.713Z,2.20
2022-12-08T23:26:35.322Z,2.20
2022-12-08T23:29:02.459Z,2.20
2022-12-08T23:31:29.779Z,2.20
2022-12-08T23:33:56.924Z,2.10
2022-12-08T23:36:27.346Z,2.10
2022-12-08T23:38:55.371Z,2.10
2022-12-08T23:41:22.233Z,1.90
2022-12-08T23:43:52.388Z,1.90
2022-12-08T23:46:21.721Z,1.90
2022-12-08T23:48:49.255Z,1.90
2022-12-08T23:51:16.943Z,1.90
2022-12-08T23:53:44.475Z,1.90
2022-12-08T23:56:15.587Z,1.80
2022-12-08T23:58:43.119Z,1.90
